Time;durP1;ratioP1;P1;durP2;ratioP2;P2;SDS_P1;SDS_P2;PMS_P1;PMS_P2;Temp;Humidity;BMP_temperature;BMP_pressure;BME280_temperature;BME280_humidity;BME280_pressure;Samples;Min_cycle;Max_cycle;Signal;HPM_P1;HPM_P2
2022/05/13 00:00:40;;;;;;;0.00;0.00;;;19.90;58.60;;;;;;4223174;28;20113;-67
2022/05/13 00:03:02;;;;;;;4.47;1.45;;;19.90;58.70;;;;;;4224436;28;20454;-67
2022/05/13 00:05:24;;;;;;;0.00;0.00;;;19.90;58.70;;;;;;4213292;28;20143;-67
2022/05/13 00:07:46;;;;;;;0.80;0.80;;;19.90;58.70;;;;;;4206403;28;20059;-67
2022/05/13 00:10:09;;;;;;;0.00;0.00;;;19.90;58.70;;;;;;4208054;28;20044;-68
2022/05/13 00:12:35;;;;;;;0.00;0.00;;;19.90;58.20;;;;;;4190842;28;20064;-67
2022/05/13 00:15:00;;;;;;;0.00;0.00;;;19.80;58.70;;;;;;4191473;28;20068;-68
2022/05/13 00:17:22;;;;;;;0.00;0.00;;;19.80;58.70;;;;;;4190225;28;20052;-67
2022/05/13 00:19:45;;;;;;;0.00;0.00;;;19.80;58.80;;;;;;4191238;28;20044;-67
2022/05/13 00:22:07;;;;;;;0.77;0.57;;;19.80;58.70;;;;;;4221925;28;20050;-67
2022/05/13 00:24:29;;;;;;;0.32;0.32;;;19.80;58.80;;;;;;4224204;28;20066;-67
2022/05/13 00:26:51;;;;;;;0.00;0.00;;;19.80;58.80;;;;;;4225075;28;20048;-69
2022/05/13 00:29:14;;;;;;;0.00;0.00;;;19.80;58.80;;;;;;4210320;28;20097;-68
2022/05/13 00:31:38;;;;;;;0.00;0.00;;;19.80;58.80;;;;;;4208269;28;20105;-69
2022/05/13 00:34:01;;;;;;;0.00;0.00;;;19.80;58.80;;;;;;4207910;28;20504;-68
2022/05/13 00:36:23;;;;;;;0.00;0.00;;;19.80;58.90;;;;;;4191583;28;20048;-68
2022/05/13 00:38:45;;;;;;;0.00;0.00;;;19.80;58.90;;;;;;4208461;28;20066;-68
2022/05/13 00:41:07;;;;;;;0.00;0.00;;;19.80;58.90;;;;;;4225719;28;20056;-68
2022/05/13 00:43:54;;;;;;;0.00;0.00;;;19.80;58.90;;;;;;4226337;28;20418;-68
2022/05/13 00:46:16;;;;;;;0.00;0.00;;;19.80;58.90;;;;;;4201670;28;20501;-68
2022/05/13 00:48:40;;;;;;;0.00;0.00;;;19.80;58.90;;;;;;4218004;27;20047;-68
2022/05/13 00:51:04;;;;;;;0.00;0.00;;;19.80;59.00;;;;;;4226672;28;20044;-68
2022/05/13 00:53:27;;;;;;;0.00;0.00;;;19.80;59.00;;;;;;4227813;27;20398;-68
2022/05/13 00:55:49;;;;;;;0.00;0.00;;;19.80;59.00;;;;;;4227396;27;20082;-68
2022/05/13 00:58:15;;;;;;;0.00;0.00;;;19.80;59.00;;;;;;4224521;28;20070;-68
2022/05/13 01:00:37;;;;;;;0.00;0.00;;;19.80;59.10;;;;;;4210683;28;20459;-67
2022/05/13 01:03:00;;;;;;;0.00;0.00;;;19.70;59.00;;;;;;4210913;28;20067;-68
2022/05/13 01:05:24;;;;;;;0.00;0.00;;;19.70;59.00;;;;;;4210002;28;20050;-67
2022/05/13 01:07:47;;;;;;;0.08;0.08;;;19.70;59.00;;;;;;4210846;28;20086;-68
2022/05/13 01:10:15;;;;;;;0.00;0.00;;;19.70;59.00;;;;;;4193850;28;20105;-67
2022/05/13 01:12:41;;;;;;;0.00;0.00;;;19.70;59.10;;;;;;4207173;28;20059;-67
2022/05/13 01:15:08;;;;;;;0.00;0.00;;;19.70;59.10;;;;;;4227235;27;20054;-67
2022/05/13 01:20:15;;;;;;;0.00;0.00;;;19.70;59.10;;;;;;4193857;28;20135;-68
2022/05/13 01:22:44;;;;;;;1.65;1.55;;;19.70;59.10;;;;;;4193974;28;21321;-67
2022/05/13 01:25:07;;;;;;;1.25;0.73;;;19.70;59.20;;;;;;4193919;28;20131;-67
2022/05/13 01:27:29;;;;;;;0.00;0.00;;;19.60;59.20;;;;;;4193481;28;20114;-68
2022/05/13 01:29:51;;;;;;;2.28;1.75;;;19.70;59.30;;;;;;4219316;28;20039;-68
2022/05/13 01:32:13;;;;;;;0.00;0.00;;;19.60;59.30;;;;;;4224702;27;20608;-68
2022/05/13 01:34:35;;;;;;;0.00;0.00;;;19.60;59.20;;;;;;4221831;27;20064;-68
2022/05/13 01:36:57;;;;;;;0.00;0.00;;;19.60;59.30;;;;;;4210511;28;20051;-68
2022/05/13 01:39:21;;;;;;;0.00;0.00;;;19.60;59.30;;;;;;4208423;28;20093;-67
2022/05/13 01:41:42;;;;;;;0.00;0.00;;;19.60;59.30;;;;;;4210453;28;20076;-69
2022/05/13 01:44:05;;;;;;;0.00;0.00;;;19.60;59.30;;;;;;4220556;27;20046;-68
2022/05/13 01:46:27;;;;;;;0.00;0.00;;;19.60;59.40;;;;;;4226954;27;20058;-68
2022/05/13 01:48:51;;;;;;;0.00;0.00;;;19.60;59.50;;;;;;4222857;28;20413;-68
2022/05/13 01:51:13;;;;;;;0.00;0.00;;;19.60;59.40;;;;;;4210184;28;20061;-68
2022/05/13 01:53:35;;;;;;;0.00;0.00;;;19.60;59.50;;;;;;4208857;28;20048;-65
2022/05/13 01:55:59;;;;;;;0.00;0.00;;;19.60;59.50;;;;;;4209661;28;20058;-64
2022/05/13 01:58:26;;;;;;;0.00;0.00;;;19.60;59.50;;;;;;4211937;27;20051;-64
2022/05/13 02:00:51;;;;;;;0.00;0.00;;;19.60;59.60;;;;;;4220954;27;20056;-65
2022/05/13 02:05:54;;;;;;;0.00;0.00;;;19.60;59.50;;;;;;4208999;28;20048;-64
2022/05/13 02:08:16;;;;;;;0.00;0.00;;;19.60;59.60;;;;;;4209644;28;20059;-64
2022/05/13 02:10:38;;;;;;;0.60;0.60;;;19.60;59.70;;;;;;4226243;27;20078;-65
2022/05/13 02:13:01;;;;;;;0.00;0.00;;;19.60;59.80;;;;;;4226165;27;20060;-66
2022/05/13 02:15:23;;;;;;;0.00;0.00;;;19.60;59.80;;;;;;4226386;28;20144;-65
2022/05/13 02:17:46;;;;;;;0.00;0.00;;;19.50;59.80;;;;;;4224170;28;20420;-65
2022/05/13 02:20:11;;;;;;;0.00;0.00;;;19.50;59.80;;;;;;4226153;27;20130;-65
2022/05/13 02:22:34;;;;;;;0.00;0.00;;;19.60;60.00;;;;;;4224477;28;20051;-65
2022/05/13 02:24:56;;;;;;;0.00;0.00;;;19.50;59.90;;;;;;4226315;27;20504;-65
2022/05/13 02:27:18;;;;;;;0.00;0.00;;;19.50;60.20;;;;;;4225668;27;20058;-65
2022/05/13 02:29:41;;;;;;;0.00;0.00;;;19.60;60.00;;;;;;4226049;27;20125;-65
2022/05/13 02:32:04;;;;;;;0.00;0.00;;;19.60;60.10;;;;;;4226302;27;20050;-66
2022/05/13 02:34:26;;;;;;;0.00;0.00;;;19.50;60.00;;;;;;4222863;27;20087;-67
2022/05/13 02:36:48;;;;;;;0.00;0.00;;;19.50;60.10;;;;;;4209577;28;20048;-67
2022/05/13 02:39:10;;;;;;;0.00;0.00;;;19.50;60.00;;;;;;4226142;28;21049;-65
2022/05/13 02:41:33;;;;;;;0.00;0.00;;;19.50;60.20;;;;;;4225356;28;20062;-66
2022/05/13 02:43:56;;;;;;;0.20;0.20;;;19.50;60.20;;;;;;4225897;27;20130;-66
2022/05/13 02:46:21;;;;;;;0.00;0.00;;;19.50;60.20;;;;;;4225788;27;20137;-65
2022/05/13 02:48:43;;;;;;;0.00;0.00;;;19.50;60.20;;;;;;4191613;28;20044;-65
2022/05/13 02:51:05;;;;;;;0.00;0.00;;;19.50;60.30;;;;;;4190686;28;20054;-65
2022/05/13 02:53:27;;;;;;;0.00;0.00;;;19.50;60.30;;;;;;4191830;28;20052;-65
2022/05/13 02:55:50;;;;;;;0.03;0.03;;;19.50;60.30;;;;;;4191842;28;20059;-65
2022/05/13 02:58:12;;;;;;;0.00;0.00;;;19.50;60.30;;;;;;4222737;27;20058;-65
2022/05/13 03:00:35;;;;;;;0.00;0.00;;;19.50;60.40;;;;;;4225772;27;20540;-65
2022/05/13 03:02:58;;;;;;;0.00;0.00;;;19.50;60.40;;;;;;4224162;28;20044;-65
2022/05/13 03:05:21;;;;;;;0.10;0.10;;;19.50;60.50;;;;;;4212955;28;20059;-66
2022/05/13 03:07:43;;;;;;;0.30;0.28;;;19.50;60.50;;;;;;4208942;28;20138;-65
2022/05/13 03:10:08;;;;;;;0.00;0.00;;;19.50;60.60;;;;;;4192245;28;20091;-65
2022/05/13 03:12:30;;;;;;;0.00;0.00;;;19.50;60.60;;;;;;4192326;28;20048;-65
2022/05/13 03:14:52;;;;;;;0.00;0.00;;;19.50;60.70;;;;;;4191452;28;20054;-66
2022/05/13 03:17:14;;;;;;;0.00;0.00;;;19.40;60.60;;;;;;4215316;28;20142;-64
2022/05/13 03:19:39;;;;;;;0.73;0.50;;;19.40;60.70;;;;;;4223927;28;20048;-65
2022/05/13 03:22:01;;;;;;;0.00;0.00;;;19.50;60.70;;;;;;4225016;28;20144;-65
2022/05/13 03:24:23;;;;;;;0.00;0.00;;;19.40;60.70;;;;;;4225394;27;20128;-65
2022/05/13 03:26:45;;;;;;;0.10;0.10;;;19.40;60.70;;;;;;4220821;28;20070;-65
2022/05/13 03:29:07;;;;;;;0.00;0.00;;;19.40;60.70;;;;;;4202660;28;20199;-65
2022/05/13 03:31:29;;;;;;;0.43;0.43;;;19.40;60.70;;;;;;4225264;28;20521;-65
2022/05/13 03:33:51;;;;;;;0.00;0.00;;;19.40;60.80;;;;;;4225392;27;20430;-65
2022/05/13 03:36:14;;;;;;;0.00;0.00;;;19.40;60.80;;;;;;4224399;28;20422;-65
2022/05/13 03:38:36;;;;;;;0.00;0.00;;;19.40;60.90;;;;;;4223899;28;20113;-65
2022/05/13 03:40:58;;;;;;;0.50;0.50;;;19.40;60.90;;;;;;4223885;28;20075;-65
2022/05/13 03:43:21;;;;;;;0.00;0.00;;;19.40;60.90;;;;;;4224948;28;20096;-65
2022/05/13 03:45:43;;;;;;;0.00;0.00;;;19.40;61.00;;;;;;4220830;28;20054;-65
2022/05/13 03:48:07;;;;;;;0.00;0.00;;;19.40;61.00;;;;;;4222808;28;20072;-65
2022/05/13 03:50:29;;;;;;;0.00;0.00;;;19.40;61.00;;;;;;4225256;28;20050;-65
2022/05/13 03:52:52;;;;;;;0.00;0.00;;;19.40;61.10;;;;;;4224890;28;20066;-66
2022/05/13 03:55:14;;;;;;;0.00;0.00;;;19.40;62.00;;;;;;4221065;28;20071;-65
2022/05/13 03:57:37;;;;;;;0.00;0.00;;;19.40;61.20;;;;;;4208920;28;20101;-65
2022/05/13 04:00:00;;;;;;;0.00;0.00;;;19.40;61.20;;;;;;4206911;28;20420;-65
2022/05/13 04:02:25;;;;;;;0.00;0.00;;;19.30;61.30;;;;;;4208165;28;20460;-65
2022/05/13 04:10:09;;;;;;;0.00;0.00;;;19.30;61.30;;;;;;4191233;28;20144;-64
2022/05/13 04:17:51;;;;;;;0.65;0.65;;;19.30;61.30;;;;;;4209409;28;20051;-64
2022/05/13 04:20:14;;;;;;;0.00;0.00;;;19.30;61.40;;;;;;4211057;28;20147;-65
2022/05/13 04:22:36;;;;;;;0.30;0.30;;;19.30;61.50;;;;;;4211409;28;20140;-64
2022/05/13 04:24:58;;;;;;;0.00;0.00;;;19.30;61.50;;;;;;4211072;28;20056;-65
2022/05/13 04:27:22;;;;;;;0.00;0.00;;;19.20;61.40;;;;;;4211326;28;20040;-64
2022/05/13 04:29:43;;;;;;;0.00;0.00;;;19.30;61.50;;;;;;4210943;28;20051;-65
2022/05/13 04:32:06;;;;;;;0.00;0.00;;;19.20;61.40;;;;;;4211635;28;20043;-65
2022/05/13 04:34:29;;;;;;;0.00;0.00;;;19.20;61.40;;;;;;4211356;28;22662;-64
2022/05/13 04:36:51;;;;;;;0.05;0.05;;;19.20;61.80;;;;;;4178602;28;20474;-65
2022/05/13 04:39:13;;;;;;;0.00;0.00;;;19.20;61.50;;;;;;4192831;28;20106;-64
2022/05/13 04:44:17;;;;;;;0.00;0.00;;;19.20;61.50;;;;;;4192939;28;20036;-64
2022/05/13 04:46:40;;;;;;;0.22;0.22;;;19.20;61.50;;;;;;4208768;28;20097;-63
2022/05/13 04:49:02;;;;;;;0.00;0.00;;;19.20;62.10;;;;;;4211270;28;20044;-65
2022/05/13 04:51:26;;;;;;;0.00;0.00;;;19.30;63.00;;;;;;4209236;28;20058;-64
2022/05/13 04:53:51;;;;;;;0.00;0.00;;;19.30;62.80;;;;;;4210309;28;20048;-65
2022/05/13 04:56:13;;;;;;;0.00;0.00;;;19.30;62.60;;;;;;4209918;28;20190;-65
2022/05/13 04:58:35;;;;;;;0.00;0.00;;;19.30;62.40;;;;;;4210889;28;20112;-64
2022/05/13 05:01:00;;;;;;;0.10;0.10;;;19.20;62.40;;;;;;4211741;28;20055;-64
2022/05/13 05:03:25;;;;;;;0.43;0.43;;;19.20;62.40;;;;;;4209120;28;20063;-64
2022/05/13 05:05:51;;;;;;;8.38;2.72;;;19.20;62.40;;;;;;4218258;28;20044;-65
2022/05/13 05:08:15;;;;;;;0.47;0.47;;;19.20;62.50;;;;;;4227985;27;20541;-63
2022/05/13 05:10:37;;;;;;;0.00;0.00;;;19.20;62.60;;;;;;4227823;27;20048;-63
2022/05/13 05:12:59;;;;;;;0.00;0.00;;;19.20;62.50;;;;;;4225457;28;20055;-65
2022/05/13 05:15:22;;;;;;;0.90;0.55;;;19.20;62.50;;;;;;4224402;27;20082;-63
2022/05/13 05:17:45;;;;;;;0.20;0.20;;;19.20;62.60;;;;;;4210326;28;20052;-63
2022/05/13 05:20:09;;;;;;;0.00;0.00;;;19.20;62.60;;;;;;4207920;28;20113;-63
2022/05/13 05:22:31;;;;;;;0.00;0.00;;;19.20;62.70;;;;;;4192944;28;20102;-65
2022/05/13 05:24:53;;;;;;;0.00;0.00;;;19.20;62.80;;;;;;4193837;28;20056;-64
2022/05/13 05:27:15;;;;;;;3.05;2.85;;;19.10;62.70;;;;;;4193755;28;20079;-64
2022/05/13 05:29:37;;;;;;;0.00;0.00;;;19.10;63.00;;;;;;4194034;28;20048;-64
2022/05/13 05:31:59;;;;;;;0.00;0.00;;;19.10;62.80;;;;;;4193570;28;20491;-65
2022/05/13 05:34:23;;;;;;;0.00;0.00;;;19.10;63.00;;;;;;4193549;28;20438;-63
2022/05/13 05:36:45;;;;;;;0.00;0.00;;;19.10;63.00;;;;;;4220661;27;20058;-64
2022/05/13 05:39:07;;;;;;;0.00;0.00;;;19.10;63.00;;;;;;4227314;28;20100;-64
2022/05/13 05:41:30;;;;;;;0.00;0.00;;;19.10;63.20;;;;;;4226727;27;20876;-65
2022/05/13 05:43:52;;;;;;;0.00;0.00;;;19.10;63.20;;;;;;4226686;27;20140;-64
2022/05/13 05:46:14;;;;;;;0.00;0.00;;;19.10;63.00;;;;;;4217757;27;20056;-64
2022/05/13 05:48:36;;;;;;;0.00;0.00;;;19.10;63.30;;;;;;4210145;28;20051;-64
2022/05/13 05:51:00;;;;;;;0.10;0.10;;;19.10;62.70;;;;;;4210208;28;21130;-64
2022/05/13 05:58:38;;;;;;;0.90;0.90;;;19.10;62.30;;;;;;4226550;27;20158;-64
2022/05/13 06:01:00;;;;;;;0.00;0.00;;;19.10;62.20;;;;;;4226598;28;20073;-64
2022/05/13 06:03:22;;;;;;;0.00;0.00;;;19.20;62.00;;;;;;4226443;27;20047;-64
2022/05/13 06:05:45;;;;;;;0.00;0.00;;;19.20;61.90;;;;;;4226659;27;20053;-64
2022/05/13 06:08:09;;;;;;;0.05;0.05;;;19.10;61.80;;;;;;4220913;27;20048;-64
2022/05/13 06:10:32;;;;;;;0.08;0.08;;;19.10;61.70;;;;;;4209768;28;20139;-64
2022/05/13 06:12:55;;;;;;;0.00;0.00;;;19.20;61.70;;;;;;4209904;28;20118;-64
2022/05/13 06:15:17;;;;;;;1.45;1.15;;;19.20;61.70;;;;;;4208934;28;20040;-64
2022/05/13 06:17:44;;;;;;;0.30;0.30;;;19.10;61.60;;;;;;4209180;28;20051;-65
2022/05/13 06:20:07;;;;;;;0.00;0.00;;;19.10;61.60;;;;;;4209327;28;20051;-64
2022/05/13 06:22:29;;;;;;;0.00;0.00;;;19.10;61.50;;;;;;4208854;28;20040;-65
2022/05/13 06:24:52;;;;;;;0.00;0.00;;;19.10;61.40;;;;;;4207976;28;20387;-64
2022/05/13 06:27:14;;;;;;;0.00;0.00;;;19.10;61.40;;;;;;4209441;28;20452;-64
2022/05/13 06:29:36;;;;;;;0.00;0.00;;;19.10;61.40;;;;;;4209143;28;20544;-65
2022/05/13 06:31:59;;;;;;;0.55;0.55;;;19.10;61.40;;;;;;4209071;28;20500;-66
2022/05/13 06:34:23;;;;;;;0.08;0.08;;;19.10;61.30;;;;;;4209454;28;20063;-64
2022/05/13 06:36:45;;;;;;;0.10;0.10;;;19.10;61.30;;;;;;4208970;28;20059;-65
2022/05/13 06:39:07;;;;;;;0.00;0.00;;;19.10;61.20;;;;;;4208762;28;20066;-65
2022/05/13 06:41:31;;;;;;;0.00;0.00;;;19.10;61.20;;;;;;4208471;28;20086;-64
2022/05/13 06:43:53;;;;;;;0.00;0.00;;;19.10;61.20;;;;;;4208778;28;20432;-65
2022/05/13 06:46:16;;;;;;;0.10;0.10;;;19.10;61.10;;;;;;4208758;28;20185;-65
2022/05/13 06:48:40;;;;;;;0.00;0.00;;;19.10;61.10;;;;;;4207367;28;20683;-64
2022/05/13 06:51:02;;;;;;;0.00;0.00;;;19.10;60.90;;;;;;4208884;28;20044;-64
2022/05/13 06:53:25;;;;;;;0.00;0.00;;;19.10;60.70;;;;;;4208930;28;20494;-64
2022/05/13 06:55:47;;;;;;;0.00;0.00;;;19.10;60.70;;;;;;4208957;28;20097;-63
2022/05/13 06:58:11;;;;;;;0.47;0.47;;;19.10;60.60;;;;;;4209407;28;20049;-63
2022/05/13 07:00:34;;;;;;;0.15;0.15;;;19.10;60.40;;;;;;4223406;28;20104;-64
2022/05/13 07:02:56;;;;;;;0.00;0.00;;;19.10;60.20;;;;;;4225633;27;20047;-63
2022/05/13 07:05:20;;;;;;;0.10;0.10;;;19.10;60.10;;;;;;4225281;27;20135;-64
2022/05/13 07:07:42;;;;;;;0.05;0.05;;;19.10;59.90;;;;;;4224009;27;20512;-63
2022/05/13 07:10:05;;;;;;;0.00;0.00;;;19.10;59.70;;;;;;4225723;27;20059;-63
2022/05/13 07:12:29;;;;;;;0.00;0.00;;;19.10;59.60;;;;;;4225496;28;20402;-63
2022/05/13 07:14:53;;;;;;;0.00;0.00;;;19.10;60.50;;;;;;4225548;28;20451;-63
2022/05/13 07:17:15;;;;;;;0.00;0.00;;;19.10;59.60;;;;;;4211120;28;20048;-62
2022/05/13 07:19:38;;;;;;;0.00;0.00;;;19.10;59.50;;;;;;4225233;28;20138;-65
2022/05/13 07:22:00;;;;;;;0.10;0.10;;;19.20;59.50;;;;;;4225733;28;20055;-63
2022/05/13 07:24:23;;;;;;;0.00;0.00;;;19.20;59.50;;;;;;4225090;28;20082;-64
2022/05/13 07:26:46;;;;;;;0.00;0.00;;;19.20;59.30;;;;;;4224278;28;20887;-62
2022/05/13 07:29:08;;;;;;;0.22;0.22;;;19.20;59.20;;;;;;4191548;28;20052;-64
2022/05/13 07:31:32;;;;;;;0.57;0.57;;;19.20;59.00;;;;;;4191938;28;20055;-63
2022/05/13 07:33:54;;;;;;;1.27;1.17;;;19.20;58.90;;;;;;4191633;28;20518;-63
2022/05/13 07:36:16;;;;;;;0.00;0.00;;;19.20;58.90;;;;;;4191963;28;20044;-63
2022/05/13 07:41:16;;;;;;;0.00;0.00;;;19.20;58.90;;;;;;4217420;28;20144;-64
2022/05/13 07:41:21;;;;;;;0.00;0.00;;;19.30;59.80;;;;;;4225208;28;20514;-63
2022/05/13 07:43:43;;;;;;;0.43;0.43;;;19.30;59.20;;;;;;4224684;28;20185;-64
2022/05/13 07:46:06;;;;;;;0.00;0.00;;;19.40;59.30;;;;;;4217282;28;20151;-62
2022/05/13 07:48:29;;;;;;;0.65;0.40;;;19.40;59.40;;;;;;4209767;28;20122;-63
2022/05/13 07:50:52;;;;;;;0.05;0.05;;;19.40;59.30;;;;;;4205739;28;20136;-65
2022/05/13 07:53:14;;;;;;;0.38;0.38;;;19.40;59.20;;;;;;4208050;28;20075;-67
2022/05/13 07:55:37;;;;;;;0.00;0.00;;;19.50;58.80;;;;;;4208047;28;20082;-65
2022/05/13 07:57:59;;;;;;;0.00;0.00;;;19.50;58.80;;;;;;4222983;28;20380;-63
2022/05/13 08:00:27;;;;;;;0.00;0.00;;;19.50;58.60;;;;;;4224533;28;20191;-64
2022/05/13 08:02:49;;;;;;;0.00;0.00;;;19.50;58.50;;;;;;4224452;28;20082;-64
2022/05/13 08:05:13;;;;;;;0.00;0.00;;;19.50;58.30;;;;;;4224517;28;20051;-63
2022/05/13 08:07:35;;;;;;;0.00;0.00;;;19.50;58.20;;;;;;4223686;28;20062;-63
2022/05/13 08:09:57;;;;;;;0.20;0.20;;;19.50;58.10;;;;;;4223813;28;20044;-63
2022/05/13 08:12:19;;;;;;;0.00;0.00;;;19.50;58.00;;;;;;4224664;28;20047;-64
2022/05/13 08:14:41;;;;;;;0.00;0.00;;;19.50;58.00;;;;;;4221966;28;20048;-63
2022/05/13 08:17:03;;;;;;;0.00;0.00;;;19.40;58.00;;;;;;4211142;28;20490;-64
2022/05/13 08:19:25;;;;;;;0.00;0.00;;;19.40;57.90;;;;;;4207897;28;20794;-62
2022/05/13 08:21:49;;;;;;;0.00;0.00;;;19.40;57.90;;;;;;4206525;28;20051;-63
2022/05/13 08:24:11;;;;;;;0.00;0.00;;;19.40;57.90;;;;;;4206117;28;20070;-63
2022/05/13 08:26:34;;;;;;;0.00;0.00;;;19.40;57.90;;;;;;4208017;28;20508;-63
2022/05/13 08:28:56;;;;;;;0.00;0.00;;;19.40;57.90;;;;;;4209296;28;20126;-63
2022/05/13 08:31:18;;;;;;;0.10;0.10;;;19.40;57.90;;;;;;4208126;28;20135;-63
2022/05/13 08:33:40;;;;;;;0.00;0.00;;;19.40;57.90;;;;;;4215263;28;20128;-64
2022/05/13 08:36:08;;;;;;;0.00;0.00;;;19.30;57.80;;;;;;4216520;28;20359;-63
2022/05/13 08:38:34;;;;;;;0.00;0.00;;;19.30;57.80;;;;;;4207632;28;20083;-65
2022/05/13 08:41:20;;;;;;;0.00;0.00;;;19.30;57.90;;;;;;4207745;28;20121;-63
2022/05/13 08:43:44;;;;;;;0.00;0.00;;;19.30;57.80;;;;;;4207793;28;20130;-63
2022/05/13 08:46:13;;;;;;;0.00;0.00;;;19.30;57.90;;;;;;4207510;28;20040;-63
2022/05/13 08:48:44;;;;;;;0.00;0.00;;;19.30;57.90;;;;;;4207604;28;20071;-63
2022/05/13 08:51:14;;;;;;;0.00;0.00;;;19.30;57.90;;;;;;4207611;28;20059;-62
2022/05/13 08:53:47;;;;;;;0.00;0.00;;;19.30;57.90;;;;;;4207538;28;20056;-63
2022/05/13 08:56:11;;;;;;;0.47;0.35;;;19.40;57.90;;;;;;4205912;28;20063;-63
2022/05/13 08:58:38;;;;;;;0.15;0.15;;;19.40;57.80;;;;;;4210408;28;20109;-63
2022/05/13 09:01:02;;;;;;;0.00;0.00;;;19.40;57.80;;;;;;4218710;28;20144;-62
2022/05/13 09:03:35;;;;;;;0.00;0.00;;;19.40;58.10;;;;;;4211294;28;20562;-62
2022/05/13 09:06:05;;;;;;;0.00;0.00;;;19.40;57.70;;;;;;4210608;28;20044;-63
2022/05/13 09:08:34;;;;;;;0.00;0.00;;;19.40;57.70;;;;;;4196951;27;20071;-63
2022/05/13 09:11:21;;;;;;;0.00;0.00;;;19.40;57.70;;;;;;4212020;27;20058;-63
2022/05/13 09:13:57;;;;;;;0.00;0.00;;;19.40;57.60;;;;;;4215336;28;20104;-64
2022/05/13 09:16:40;;;;;;;0.00;0.00;;;19.40;57.50;;;;;;4217582;28;20094;-63
2022/05/13 09:19:04;;;;;;;0.00;0.00;;;19.40;57.50;;;;;;4210029;28;20074;-63
2022/05/13 09:21:26;;;;;;;0.00;0.00;;;19.40;57.40;;;;;;4214994;28;20056;-63
2022/05/13 09:23:49;;;;;;;0.10;0.10;;;19.40;57.40;;;;;;4213522;28;20055;-63
2022/05/13 09:26:14;;;;;;;0.00;0.00;;;19.40;57.40;;;;;;4201557;28;20052;-63
2022/05/13 09:28:38;;;;;;;1.20;1.17;;;19.40;57.40;;;;;;4210279;28;20048;-64
2022/05/13 09:31:19;;;;;;;0.00;0.00;;;19.40;57.30;;;;;;4210392;28;20124;-64
2022/05/13 09:34:00;;;;;;;0.00;0.00;;;19.40;57.30;;;;;;4215413;28;20047;-63
2022/05/13 09:36:34;;;;;;;0.20;0.20;;;19.40;57.10;;;;;;4225457;28;20050;-64
2022/05/13 09:38:59;;;;;;;0.00;0.00;;;19.40;57.10;;;;;;4193330;28;20094;-64
2022/05/13 09:41:29;;;;;;;0.00;0.00;;;19.40;57.00;;;;;;4193208;28;20385;-64
2022/05/13 09:43:54;;;;;;;0.25;0.25;;;19.40;57.00;;;;;;4209531;27;20059;-64
2022/05/13 09:46:23;;;;;;;0.00;0.00;;;19.30;56.80;;;;;;4209901;28;20044;-64
2022/05/13 09:48:54;;;;;;;0.00;0.00;;;19.40;57.00;;;;;;4209940;28;20113;-63
2022/05/13 09:51:23;;;;;;;0.00;0.00;;;19.40;57.10;;;;;;4209842;28;20055;-65
2022/05/13 09:54:01;;;;;;;0.15;0.15;;;19.40;57.10;;;;;;4212461;28;20148;-64
2022/05/13 09:56:35;;;;;;;0.57;0.57;;;19.40;57.10;;;;;;4224828;28;20466;-65
2022/05/13 09:58:58;;;;;;;0.00;0.00;;;19.40;57.30;;;;;;4225886;27;20077;-65
2022/05/13 10:01:28;;;;;;;0.00;0.00;;;19.40;57.30;;;;;;4226772;27;20096;-65
2022/05/13 10:04:08;;;;;;;14.50;1.65;;;19.40;57.10;;;;;;4223913;28;20138;-65
2022/05/13 10:06:34;;;;;;;0.00;0.00;;;19.40;57.80;;;;;;4198690;28;20668;-65
2022/05/13 10:13:57;;;;;;;0.10;0.10;;;19.40;57.00;;;;;;4209580;28;20130;-65
2022/05/13 10:14:33;;;;;;;0.00;0.00;;;19.40;56.80;;;;;;4206753;28;20395;-65
2022/05/13 10:16:59;;;;;;;0.00;0.00;;;19.40;56.80;;;;;;4209230;28;20447;-66
2022/05/13 10:19:28;;;;;;;0.00;0.00;;;19.40;56.90;;;;;;4209210;28;20129;-67
2022/05/13 10:21:58;;;;;;;1.30;0.52;;;19.40;57.60;;;;;;4209605;28;20048;-67
2022/05/13 10:24:32;;;;;;;0.00;0.00;;;19.40;56.80;;;;;;4209250;28;20129;-67
2022/05/13 10:26:57;;;;;;;0.00;0.00;;;19.50;56.80;;;;;;4192793;28;20075;-67
2022/05/13 10:29:26;;;;;;;0.08;0.08;;;19.50;56.70;;;;;;4192511;28;20044;-68
2022/05/13 10:31:50;;;;;;;0.00;0.00;;;19.50;56.50;;;;;;4225584;27;20069;-68
2022/05/13 10:34:28;;;;;;;0.00;0.00;;;19.60;56.50;;;;;;4226073;27;20489;-67
2022/05/13 10:36:55;;;;;;;0.00;0.00;;;19.60;57.10;;;;;;4224070;27;20079;-67
2022/05/13 10:39:22;;;;;;;0.00;0.00;;;19.60;56.30;;;;;;4210721;28;20070;-67
2022/05/13 10:41:48;;;;;;;0.08;0.08;;;19.70;56.20;;;;;;4208902;28;20994;-67
2022/05/13 10:44:17;;;;;;;0.03;0.03;;;19.70;56.00;;;;;;4207744;28;20503;-68
2022/05/13 10:46:47;;;;;;;0.00;0.00;;;19.80;55.90;;;;;;4208886;28;20066;-67
2022/05/13 10:49:34;;;;;;;0.00;0.00;;;19.80;55.70;;;;;;4210025;28;20113;-67
2022/05/13 10:52:06;;;;;;;0.00;0.00;;;19.80;55.70;;;;;;4208634;28;20059;-67
2022/05/13 10:54:43;;;;;;;0.00;0.00;;;19.90;55.70;;;;;;4197102;28;20105;-67
2022/05/13 10:57:16;;;;;;;0.10;0.10;;;19.90;55.60;;;;;;4208894;28;20060;-67
2022/05/13 10:59:52;;;;;;;0.00;0.00;;;19.90;55.60;;;;;;4208294;28;20047;-67
2022/05/13 11:02:42;;;;;;;0.00;0.00;;;19.90;55.60;;;;;;4208877;28;20395;-67
2022/05/13 11:05:13;;;;;;;0.25;0.25;;;19.90;55.60;;;;;;4208499;28;20074;-66
2022/05/13 11:07:57;;;;;;;0.00;0.00;;;20.00;55.60;;;;;;4208719;28;20097;-67
2022/05/13 11:10:27;;;;;;;1.27;0.90;;;19.90;55.60;;;;;;4208703;28;20055;-67
2022/05/13 11:12:57;;;;;;;0.00;0.00;;;19.90;55.40;;;;;;4208356;28;20040;-67
2022/05/13 11:15:33;;;;;;;0.00;0.00;;;20.00;55.40;;;;;;4208272;28;20126;-67
2022/05/13 11:18:04;;;;;;;1.95;1.75;;;19.90;55.30;;;;;;4208527;28;20052;-67
2022/05/13 11:20:34;;;;;;;0.10;0.10;;;19.90;55.00;;;;;;4208222;28;20044;-68
2022/05/13 11:23:12;;;;;;;0.00;0.00;;;19.90;54.90;;;;;;4208539;28;20054;-67
2022/05/13 11:25:54;;;;;;;0.00;0.00;;;19.90;54.90;;;;;;4208479;28;20138;-68
2022/05/13 11:28:45;;;;;;;0.00;0.00;;;19.90;55.00;;;;;;4209980;28;20483;-67
2022/05/13 11:31:17;;;;;;;0.00;0.00;;;19.90;55.00;;;;;;4202450;28;20048;-66
2022/05/13 11:33:47;;;;;;;0.00;0.00;;;19.90;55.00;;;;;;4209412;28;20101;-64
2022/05/13 11:36:23;;;;;;;0.00;0.00;;;19.90;55.00;;;;;;4208640;28;20097;-64
2022/05/13 11:39:09;;;;;;;0.00;0.00;;;19.90;55.80;;;;;;4208379;28;20055;-65
2022/05/13 11:41:40;;;;;;;0.00;0.00;;;19.90;55.30;;;;;;4209509;28;20139;-65
2022/05/13 11:44:30;;;;;;;0.10;0.10;;;19.80;55.50;;;;;;4208550;28;20398;-65
2022/05/13 11:46:59;;;;;;;0.32;0.32;;;19.80;55.70;;;;;;4207997;28;20066;-65
2022/05/13 11:49:26;;;;;;;5.95;0.98;;;19.80;55.70;;;;;;4206520;28;20261;-67
2022/05/13 11:51:48;;;;;;;0.00;0.00;;;19.80;55.70;;;;;;4206938;28;20098;-66
2022/05/13 11:54:25;;;;;;;0.00;0.00;;;19.80;55.70;;;;;;4203916;28;20036;-65
2022/05/13 11:56:47;;;;;;;0.00;0.00;;;19.70;55.90;;;;;;4206494;28;20044;-64
2022/05/13 11:59:11;;;;;;;0.17;0.17;;;19.70;56.00;;;;;;4207595;28;20058;-68
2022/05/13 12:02:01;;;;;;;0.00;0.00;;;19.80;56.10;;;;;;4207890;28;20078;-67
2022/05/13 12:04:32;;;;;;;0.00;0.00;;;19.70;56.40;;;;;;4208075;28;20079;-65
2022/05/13 12:06:57;;;;;;;0.00;0.00;;;19.80;56.60;;;;;;4207995;28;20040;-64
2022/05/13 12:09:25;;;;;;;0.00;0.00;;;19.80;56.70;;;;;;4207987;28;20048;-64
2022/05/13 12:11:53;;;;;;;0.00;0.00;;;19.80;56.70;;;;;;4207972;28;20047;-64
2022/05/13 12:14:26;;;;;;;0.00;0.00;;;19.80;56.60;;;;;;4208039;28;20048;-65
2022/05/13 12:16:55;;;;;;;0.00;0.00;;;19.80;56.70;;;;;;4207740;28;20086;-64
2022/05/13 12:19:33;;;;;;;0.00;0.00;;;19.80;56.70;;;;;;4207592;28;20055;-65
2022/05/13 12:22:02;;;;;;;0.00;0.00;;;19.80;56.70;;;;;;4207960;28;20135;-65
2022/05/13 12:24:26;;;;;;;0.00;0.00;;;19.80;56.60;;;;;;4207713;28;20109;-65
2022/05/13 12:27:12;;;;;;;33.42;1.25;;;19.90;56.60;;;;;;4208058;28;20047;-64
2022/05/13 12:29:44;;;;;;;0.00;0.00;;;19.90;56.50;;;;;;4206534;28;20143;-64
2022/05/13 12:32:20;;;;;;;0.00;0.00;;;19.90;56.50;;;;;;4207802;28;20071;-64
2022/05/13 12:37:42;;;;;;;0.00;0.00;;;19.90;56.20;;;;;;4208684;28;20109;-66
2022/05/13 12:40:17;;;;;;;0.00;0.00;;;19.90;56.20;;;;;;4210890;28;20051;-64
2022/05/13 12:42:50;;;;;;;0.08;0.08;;;19.90;56.30;;;;;;4209685;28;20146;-64
2022/05/13 12:45:22;;;;;;;0.00;0.00;;;19.90;56.30;;;;;;4209502;28;20215;-63
2022/05/13 12:47:59;;;;;;;0.35;0.35;;;19.90;56.30;;;;;;4210929;28;20060;-63
2022/05/13 12:50:30;;;;;;;0.20;0.20;;;19.90;56.30;;;;;;4210860;28;20121;-64
2022/05/13 12:52:52;;;;;;;0.10;0.10;;;20.00;56.80;;;;;;4210740;28;20474;-64
2022/05/13 12:55:21;;;;;;;0.00;0.00;;;19.90;56.40;;;;;;4211196;28;20135;-63
2022/05/13 12:57:47;;;;;;;1.13;1.02;;;20.00;56.40;;;;;;4208819;28;20082;-64
2022/05/13 13:00:16;;;;;;;0.00;0.00;;;19.90;56.20;;;;;;4210235;28;20120;-63
2022/05/13 13:02:40;;;;;;;0.03;0.03;;;19.90;56.20;;;;;;4210465;28;20574;-64
2022/05/13 13:05:09;;;;;;;0.00;0.00;;;20.00;56.30;;;;;;4193566;28;20543;-66
2022/05/13 13:07:36;;;;;;;0.00;0.00;;;20.00;56.30;;;;;;4193227;28;20086;-66
2022/05/13 13:09:58;;;;;;;0.00;0.00;;;20.00;56.30;;;;;;4193721;28;20525;-64